Time;durP1;ratioP1;P1;durP2;ratioP2;P2;SDS_P1;SDS_P2;PMS_P1;PMS_P2;Temp;Humidity;BMP_temperature;BMP_pressure;BME280_temperature;BME280_humidity;BME280_pressure;Samples;Min_cycle;Max_cycle;Signal;HPM_P1;HPM_P2
2022/06/25 00:01:16;;;;;;;4.60;1.40;;;;;;;17.88;72.81;98470.53;4956824;28;20024;-49
2022/06/25 00:03:42;;;;;;;4.15;1.50;;;;;;;17.82;73.10;98474.19;4955435;29;20031;-48
2022/06/25 00:06:08;;;;;;;9.70;2.47;;;;;;;17.81;73.27;98471.78;4956671;28;20031;-49
2022/06/25 00:08:36;;;;;;;5.90;1.73;;;;;;;17.84;72.96;98476.63;4955266;29;20063;-49
2022/06/25 00:11:03;;;;;;;7.78;2.05;;;;;;;17.80;72.80;98470.19;4956620;28;20019;-49
2022/06/25 00:13:28;;;;;;;4.10;1.50;;;;;;;17.82;72.80;98470.72;4956591;28;20034;-49
2022/06/25 00:15:54;;;;;;;4.82;1.70;;;;;;;17.77;72.93;98480.25;4955146;29;20022;-49
2022/06/25 00:18:20;;;;;;;4.90;1.73;;;;;;;17.74;72.86;98477.28;4955196;29;20038;-48
2022/06/25 00:20:46;;;;;;;3.25;1.70;;;;;;;17.70;73.21;98474.34;4955177;29;20082;-48
2022/06/25 00:23:12;;;;;;;5.00;1.67;;;;;;;17.67;73.48;98482.81;4955093;29;20035;-48
2022/06/25 00:25:38;;;;;;;4.40;1.85;;;;;;;17.62;73.71;98482.75;4955035;29;20024;-49
2022/06/25 00:28:05;;;;;;;8.85;1.95;;;;;;;17.55;73.90;98482.19;4956021;29;20054;-49
2022/06/25 00:30:31;;;;;;;6.80;1.70;;;;;;;17.48;73.79;98481.56;4956251;28;20386;-48
2022/06/25 00:32:57;;;;;;;12.15;2.60;;;;;;;17.44;74.04;98480.47;4954966;29;20027;-49
2022/06/25 00:35:23;;;;;;;6.47;2.20;;;;;;;17.50;73.80;98476.81;4954913;29;20034;-49
2022/06/25 00:37:49;;;;;;;6.93;2.83;;;;;;;17.60;73.99;98479.56;4956200;28;20034;-49
2022/06/25 00:40:15;;;;;;;7.43;2.05;;;;;;;17.70;73.90;98482.31;4954836;29;20490;-48
2022/06/25 00:42:43;;;;;;;7.90;2.13;;;;;;;18.03;74.04;98479.69;4954755;29;20175;-49
2022/06/25 00:45:08;;;;;;;8.68;2.63;;;;;;;18.85;72.66;98478.34;4955186;28;20031;-49
2022/06/25 00:47:34;;;;;;;5.80;1.80;;;;;;;19.19;70.37;98488.59;4955435;28;20512;-49
2022/06/25 00:50:00;;;;;;;7.40;1.77;;;;;;;19.29;69.84;98487.81;4955989;29;20387;-49
2022/06/25 00:52:27;;;;;;;7.68;1.63;;;;;;;19.41;68.93;98498.25;4955883;29;20019;-49
2022/06/25 00:54:56;;;;;;;8.98;1.73;;;;;;;19.18;69.06;98496.84;4954554;29;20031;-49
2022/06/25 00:57:24;;;;;;;11.98;2.75;;;;;;;19.04;69.65;98488.56;4955817;28;20127;-49
2022/06/25 00:59:51;;;;;;;7.95;2.40;;;;;;;19.26;70.04;98489.16;4955676;28;20034;-49
2022/06/25 01:02:20;;;;;;;19.05;5.38;;;;;;;19.61;69.27;98487.63;4955735;28;20056;-49
2022/06/25 01:04:46;;;;;;;8.52;1.63;;;;;;;19.91;68.01;98478.91;4955706;28;20375;-49
2022/06/25 01:07:12;;;;;;;10.05;2.20;;;;;;;20.14;67.36;98482.06;4955509;28;20058;-49
2022/06/25 01:09:39;;;;;;;5.95;1.63;;;;;;;20.32;66.21;98473.56;4955548;28;20058;-49
2022/06/25 01:12:05;;;;;;;15.77;2.63;;;;;;;20.25;66.10;98472.22;4955545;28;20031;-49
2022/06/25 01:14:31;;;;;;;9.93;1.88;;;;;;;20.28;66.00;98477.00;4954170;29;20034;-49
2022/06/25 01:16:56;;;;;;;5.85;1.63;;;;;;;20.23;65.43;98477.03;4954103;29;20027;-49
2022/06/25 01:19:22;;;;;;;10.48;1.80;;;;;;;19.80;65.45;98477.31;4954049;29;20035;-49
2022/06/25 01:21:48;;;;;;;7.47;1.83;;;;;;;19.27;66.58;98473.97;4955259;29;20027;-48
2022/06/25 01:24:14;;;;;;;8.60;2.28;;;;;;;18.96;68.25;98481.88;4953992;29;20409;-49
2022/06/25 01:26:41;;;;;;;7.40;1.73;;;;;;;19.29;68.82;98474.53;4953968;29;20098;-49
2022/06/25 01:29:07;;;;;;;11.60;2.08;;;;;;;19.53;67.65;98472.19;4953615;29;20058;-49
2022/06/25 01:31:33;;;;;;;8.75;2.05;;;;;;;19.65;67.34;98483.38;4955136;28;20033;-49
2022/06/25 01:34:00;;;;;;;14.13;2.95;;;;;;;19.98;67.16;98475.97;4955115;28;20027;-49
2022/06/25 01:36:26;;;;;;;9.43;2.05;;;;;;;20.16;65.92;98474.63;4955099;28;20025;-49
2022/06/25 01:38:52;;;;;;;10.50;1.52;;;;;;;20.11;65.10;98478.09;4955012;28;20035;-49
2022/06/25 01:41:18;;;;;;;8.68;1.88;;;;;;;20.14;65.80;98480.22;4954929;28;20031;-49
2022/06/25 01:43:44;;;;;;;14.07;2.00;;;;;;;20.38;64.95;98474.31;4954940;28;20031;-49
2022/06/25 01:46:10;;;;;;;11.20;2.38;;;;;;;20.20;65.11;98470.34;4953543;29;20030;-49
2022/06/25 01:48:36;;;;;;;7.22;2.00;;;;;;;20.28;65.08;98475.16;4954769;28;20027;-49
2022/06/25 01:51:02;;;;;;;24.70;6.70;;;;;;;20.18;65.22;98471.69;4953484;29;20079;-49
2022/06/25 01:53:29;;;;;;;8.82;2.75;;;;;;;20.29;65.07;98476.75;4953416;29;20039;-49
2022/06/25 01:55:55;;;;;;;14.75;2.85;;;;;;;20.42;64.81;98469.25;4954679;29;20501;-49
2022/06/25 01:58:21;;;;;;;6.63;1.67;;;;;;;20.48;64.22;98469.00;4954322;28;20536;-49
2022/06/25 02:00:47;;;;;;;5.47;1.23;;;;;;;20.49;63.59;98469.78;4954559;28;20027;-49
2022/06/25 02:03:14;;;;;;;6.53;1.60;;;;;;;20.26;63.67;98469.28;4954570;28;20070;-49
2022/06/25 02:05:59;;;;;;;3.92;1.33;;;;;;;19.91;64.01;98459.47;4954477;28;20319;-49
2022/06/25 02:08:31;;;;;;;8.85;1.80;;;;;;;19.53;64.58;98472.97;4954478;28;20042;-49
2022/06/25 02:10:58;;;;;;;10.18;1.90;;;;;;;19.20;65.27;98468.91;4953160;29;20493;-49
2022/06/25 02:13:25;;;;;;;8.80;2.08;;;;;;;19.15;66.27;98463.56;4954412;28;20030;-49
2022/06/25 02:15:51;;;;;;;2.75;1.33;;;;;;;19.33;65.59;98467.63;4953091;29;20031;-49
2022/06/25 02:18:17;;;;;;;4.55;1.92;;;;;;;19.18;65.29;98467.59;4954279;28;20501;-49
2022/06/25 02:20:43;;;;;;;11.05;2.20;;;;;;;18.95;65.85;98474.94;4952983;29;20055;-49
2022/06/25 02:23:11;;;;;;;10.75;2.10;;;;;;;18.61;66.48;98471.81;4954795;28;20027;-49
2022/06/25 02:25:37;;;;;;;6.85;1.83;;;;;;;18.17;67.96;98468.38;4954934;28;20393;-49
2022/06/25 02:28:03;;;;;;;9.30;2.00;;;;;;;17.71;69.58;98469.84;4953865;28;20120;-49
2022/06/25 02:30:29;;;;;;;4.15;1.48;;;;;;;17.37;70.94;98464.75;4952828;29;20035;-49
2022/06/25 02:32:54;;;;;;;5.13;1.65;;;;;;;17.15;72.41;98462.13;4952812;29;20023;-49
2022/06/25 02:35:20;;;;;;;5.38;1.65;;;;;;;16.96;72.84;98462.47;4954036;28;20027;-51
2022/06/25 02:37:46;;;;;;;6.72;1.70;;;;;;;16.84;73.78;98455.66;4952758;29;20035;-51
2022/06/25 02:40:12;;;;;;;3.05;1.40;;;;;;;16.73;74.13;98450.19;4954007;29;20027;-51
2022/06/25 02:42:40;;;;;;;5.80;1.65;;;;;;;16.65;74.24;98445.34;4953957;28;20030;-51
2022/06/25 02:45:07;;;;;;;8.77;1.77;;;;;;;16.67;73.80;98447.75;4952659;29;20085;-51
2022/06/25 02:47:33;;;;;;;9.85;1.55;;;;;;;16.64;73.80;98445.56;4952555;29;20019;-51
2022/06/25 02:49:59;;;;;;;7.20;2.13;;;;;;;16.61;74.16;98457.47;4953930;28;20030;-51
2022/06/25 02:52:25;;;;;;;11.32;5.95;;;;;;;16.75;74.21;98455.25;4953820;28;20027;-51
2022/06/25 02:54:51;;;;;;;8.75;1.85;;;;;;;17.00;73.49;98456.66;4953835;28;20035;-51
2022/06/25 03:00:01;;;;;;;5.03;1.50;;;;;;;17.59;71.88;98467.34;4953884;29;20037;-51
2022/06/25 03:02:27;;;;;;;15.18;2.45;;;;;;;17.86;71.89;98462.03;4954309;28;20023;-51
2022/06/25 03:04:53;;;;;;;10.10;2.40;;;;;;;18.20;71.01;98450.34;4953728;28;20042;-51
2022/06/25 03:07:19;;;;;;;8.73;1.55;;;;;;;18.55;69.84;98447.91;4953554;29;20023;-51
2022/06/25 03:09:45;;;;;;;10.23;1.95;;;;;;;18.58;68.57;98448.44;4955852;28;20031;-51
2022/06/25 03:12:12;;;;;;;12.10;2.47;;;;;;;18.30;68.43;98451.19;4957647;29;20027;-51
2022/06/25 03:14:37;;;;;;;15.40;3.05;;;;;;;17.91;69.12;98461.28;4957645;28;20026;-51
2022/06/25 03:17:03;;;;;;;11.05;1.92;;;;;;;17.73;70.06;98457.13;4956345;29;20401;-51
2022/06/25 03:19:29;;;;;;;9.20;1.38;;;;;;;17.81;69.92;98461.16;4958090;28;20055;-51
2022/06/25 03:21:55;;;;;;;9.23;1.70;;;;;;;17.65;69.89;98461.03;4957515;29;20050;-51
2022/06/25 03:24:20;;;;;;;7.55;1.58;;;;;;;17.46;70.42;98462.44;4957494;29;20516;-51
2022/06/25 03:26:46;;;;;;;7.75;1.30;;;;;;;17.37;70.71;98464.75;4956098;29;20512;-51
2022/06/25 03:29:12;;;;;;;8.30;1.58;;;;;;;17.29;71.00;98465.19;4957186;29;20043;-51
2022/06/25 03:31:38;;;;;;;5.43;1.50;;;;;;;17.24;71.27;98460.63;4955990;29;20039;-51
2022/06/25 03:34:03;;;;;;;10.30;1.60;;;;;;;17.26;71.32;98455.88;4957307;28;20020;-51
2022/06/25 03:36:29;;;;;;;5.85;1.52;;;;;;;17.54;71.33;98459.34;4957220;28;20058;-51
2022/06/25 03:38:55;;;;;;;12.43;1.60;;;;;;;17.90;70.48;98451.72;4955912;29;20024;-51
2022/06/25 03:41:33;;;;;;;8.18;1.67;;;;;;;18.16;69.66;98452.69;4957118;29;20020;-51
2022/06/25 03:44:10;;;;;;;4.80;1.95;;;;;;;18.40;68.66;98449.66;4957179;28;20027;-51
2022/06/25 03:46:38;;;;;;;16.70;3.22;;;;;;;18.49;67.94;98445.44;4955676;29;20039;-50
2022/06/25 03:49:05;;;;;;;5.75;1.52;;;;;;;18.40;67.75;98441.69;4955681;29;20397;-51
2022/06/25 03:51:32;;;;;;;6.10;1.30;;;;;;;18.36;67.89;98450.16;4955629;29;20110;-51
2022/06/25 03:53:58;;;;;;;10.73;1.95;;;;;;;18.47;67.96;98444.91;4956923;28;20183;-51
2022/06/25 03:56:24;;;;;;;4.20;1.30;;;;;;;18.55;67.54;98439.09;4956831;28;20028;-51
2022/06/25 03:58:51;;;;;;;4.10;1.27;;;;;;;18.42;67.20;98445.69;4956892;28;20082;-51
2022/06/25 04:01:17;;;;;;;9.48;1.30;;;;;;;18.11;67.44;98450.00;4956651;28;20082;-51
2022/06/25 04:03:43;;;;;;;14.50;3.35;;;;;;;17.75;68.42;98436.44;4956750;28;20023;-51
2022/06/25 04:06:09;;;;;;;12.20;1.67;;;;;;;17.44;69.21;98438.00;4956718;28;20572;-51
2022/06/25 04:08:35;;;;;;;5.55;1.42;;;;;;;17.26;70.27;98433.84;4956624;28;20023;-51
2022/06/25 04:11:02;;;;;;;4.20;1.30;;;;;;;17.12;71.06;98426.31;4971389;28;20088;-51
2022/06/25 04:13:27;;;;;;;5.15;1.77;;;;;;;16.99;72.04;98426.69;4956612;28;20520;-51
2022/06/25 04:15:53;;;;;;;2.95;1.92;;;;;;;16.89;72.68;98419.41;4956527;28;20102;-51
2022/06/25 04:18:19;;;;;;;12.02;1.90;;;;;;;16.90;73.05;98428.16;4956468;29;20031;-51
2022/06/25 04:20:45;;;;;;;8.73;1.92;;;;;;;16.89;73.26;98419.41;4956218;28;20031;-50
2022/06/25 04:23:11;;;;;;;17.48;1.77;;;;;;;16.89;73.50;98422.06;4956395;29;20521;-50
2022/06/25 04:25:37;;;;;;;8.30;1.88;;;;;;;17.30;72.74;98427.78;4956350;28;20062;-51
2022/06/25 04:30:48;;;;;;;11.57;2.13;;;;;;;18.52;67.93;98421.81;4956539;29;20046;-51
2022/06/25 04:33:14;;;;;;;4.05;1.60;;;;;;;18.69;67.29;98424.31;4954901;29;20027;-52
2022/06/25 04:35:40;;;;;;;7.63;1.90;;;;;;;19.00;66.10;98419.13;4954895;29;20026;-51
2022/06/25 04:38:07;;;;;;;10.77;1.67;;;;;;;19.12;65.77;98419.69;4956167;28;20038;-51
2022/06/25 04:40:34;;;;;;;8.23;1.92;;;;;;;19.11;65.85;98427.91;4956034;29;20028;-51
2022/06/25 04:43:00;;;;;;;5.60;2.20;;;;;;;19.17;66.00;98416.22;4956086;28;20027;-51
2022/06/25 04:45:26;;;;;;;7.57;2.00;;;;;;;19.39;65.52;98417.88;4955961;28;20030;-51
2022/06/25 04:47:52;;;;;;;7.03;1.70;;;;;;;19.75;63.96;98406.19;4954587;29;20553;-51
2022/06/25 04:50:17;;;;;;;10.45;1.73;;;;;;;20.35;62.65;98413.56;4954602;29;20051;-51
2022/06/25 04:52:43;;;;;;;9.80;2.97;;;;;;;21.08;60.33;98405.00;4955942;28;20111;-51
2022/06/25 04:55:09;;;;;;;11.82;2.20;;;;;;;21.94;57.95;98407.34;4956090;29;20039;-49
2022/06/25 04:57:35;;;;;;;2.95;1.50;;;;;;;22.52;55.85;98401.16;4955861;28;20090;-49
2022/06/25 05:00:01;;;;;;;9.60;2.45;;;;;;;23.20;54.02;98408.06;4955858;28;20031;-49
2022/06/25 05:02:27;;;;;;;8.38;1.55;;;;;;;23.52;52.23;98406.50;4955722;28;20046;-49
2022/06/25 05:04:52;;;;;;;9.00;1.80;;;;;;;23.67;51.71;98403.56;4955725;29;20034;-49
2022/06/25 05:07:18;;;;;;;11.88;1.48;;;;;;;24.01;50.85;98399.03;4954262;29;20032;-49
2022/06/25 05:09:44;;;;;;;13.05;1.98;;;;;;;24.46;49.94;98402.72;4955609;28;20560;-49
2022/06/25 05:12:09;;;;;;;5.63;1.10;;;;;;;24.79;48.65;98393.78;4954241;29;20142;-49
2022/06/25 05:14:35;;;;;;;6.47;1.75;;;;;;;25.07;48.11;98397.19;4954200;29;20082;-49
2022/06/25 05:17:00;;;;;;;9.90;1.88;;;;;;;25.45;46.96;98389.63;4955443;28;20029;-49
2022/06/25 05:19:26;;;;;;;12.82;1.75;;;;;;;25.73;46.45;98391.38;4955429;28;20023;-49
2022/06/25 05:21:52;;;;;;;12.52;2.35;;;;;;;25.97;45.39;98385.69;4955355;29;20031;-49
2022/06/25 05:24:17;;;;;;;5.50;1.50;;;;;;;26.04;44.85;98381.47;4954020;29;20575;-49
2022/06/25 05:26:43;;;;;;;7.75;1.45;;;;;;;26.08;44.68;98387.81;4955333;28;20397;-49
2022/06/25 05:29:09;;;;;;;10.32;1.90;;;;;;;26.28;44.44;98378.41;4955042;28;20047;-49
2022/06/25 05:31:34;;;;;;;8.20;1.80;;;;;;;26.57;43.64;98389.72;4954575;28;20155;-49
2022/06/25 05:34:00;;;;;;;4.60;1.30;;;;;;;26.53;43.90;98388.75;4955211;28;20042;-49
2022/06/25 05:36:26;;;;;;;9.68;1.55;;;;;;;26.66;43.53;98391.34;4969040;28;20031;-49
2022/06/25 05:38:51;;;;;;;6.90;1.58;;;;;;;27.04;42.95;98387.25;4955099;28;20027;-49
2022/06/25 05:41:17;;;;;;;5.53;1.25;;;;;;;27.38;41.98;98380.31;4954990;28;20027;-49
2022/06/25 05:43:43;;;;;;;10.80;1.52;;;;;;;27.67;41.31;98383.13;4954968;28;20027;-50
2022/06/25 05:46:09;;;;;;;4.80;1.00;;;;;;;28.29;40.59;98381.84;4953590;29;20397;-49
2022/06/25 05:48:34;;;;;;;8.88;1.52;;;;;;;28.54;39.44;98381.25;4953507;29;20572;-49
2022/06/25 05:51:01;;;;;;;3.78;1.55;;;;;;;28.31;39.83;98386.09;4954843;28;20031;-49
2022/06/25 05:53:27;;;;;;;5.88;1.27;;;;;;;28.21;39.37;98382.66;4969573;28;20035;-49
2022/06/25 05:55:53;;;;;;;8.35;1.20;;;;;;;27.99;39.71;98388.28;4954752;29;20023;-49
2022/06/25 05:58:20;;;;;;;5.97;1.85;;;;;;;28.21;40.27;98381.84;4953374;29;20031;-49
2022/06/25 06:00:46;;;;;;;7.38;1.48;;;;;;;28.75;38.55;98383.97;4954660;28;20023;-49
2022/06/25 06:03:12;;;;;;;4.93;1.23;;;;;;;28.66;38.56;98386.75;4953437;29;20063;-49
2022/06/25 06:05:38;;;;;;;1.95;1.20;;;;;;;28.90;38.50;98383.41;4954533;28;20082;-49
2022/06/25 06:08:06;;;;;;;8.25;0.90;;;;;;;29.19;37.42;98377.16;4954704;28;20023;-48
2022/06/25 06:10:31;;;;;;;5.55;1.00;;;;;;;29.32;37.13;98372.59;4953192;29;20027;-49
2022/06/25 06:12:57;;;;;;;11.25;1.75;;;;;;;29.16;37.32;98372.44;4953406;29;20544;-49
2022/06/25 06:15:23;;;;;;;3.63;1.00;;;;;;;29.04;37.41;98372.34;4954397;28;20153;-49
2022/06/25 06:17:49;;;;;;;7.65;1.20;;;;;;;28.75;37.64;98373.97;4954398;28;20110;-49
2022/06/25 06:20:14;;;;;;;7.90;1.25;;;;;;;28.73;37.97;98376.19;4954247;29;20027;-49
2022/06/25 06:22:40;;;;;;;8.00;1.60;;;;;;;28.68;38.34;98382.59;4954819;28;20086;-49
2022/06/25 06:25:06;;;;;;;4.30;1.20;;;;;;;29.07;37.31;98380.56;4952937;29;20081;-49
2022/06/25 06:27:32;;;;;;;4.22;1.10;;;;;;;29.09;37.52;98372.91;4952758;29;20047;-49
2022/06/25 06:29:58;;;;;;;6.60;1.20;;;;;;;29.53;36.91;98379.88;4954181;28;20520;-49
2022/06/25 06:32:24;;;;;;;5.35;1.65;;;;;;;30.34;36.01;98381.06;4954109;29;20015;-49
2022/06/25 06:34:49;;;;;;;5.97;1.00;;;;;;;30.33;34.74;98379.50;4954100;29;20038;-49
2022/06/25 06:37:15;;;;;;;5.45;1.08;;;;;;;29.91;35.71;98379.66;4953939;29;20062;-49
2022/06/25 06:39:41;;;;;;;2.88;1.17;;;;;;;29.87;35.01;98384.16;4954070;29;20027;-49
2022/06/25 06:42:06;;;;;;;11.68;1.50;;;;;;;29.98;35.20;98376.38;4953961;28;20028;-49
2022/06/25 06:44:32;;;;;;;17.25;2.20;;;;;;;30.69;33.54;98380.59;4968734;28;20119;-49
2022/06/25 06:46:58;;;;;;;5.57;0.95;;;;;;;30.60;33.39;98383.41;4953967;28;20031;-49
2022/06/25 06:49:24;;;;;;;6.05;1.20;;;;;;;30.74;33.72;98372.22;4952566;29;20035;-49
2022/06/25 06:51:50;;;;;;;6.40;1.05;;;;;;;31.28;32.90;98379.19;4953879;29;20066;-50
2022/06/25 06:54:15;;;;;;;3.42;0.80;;;;;;;31.97;31.32;98377.13;4953808;29;20039;-49
2022/06/25 06:56:41;;;;;;;5.22;0.93;;;;;;;32.73;30.67;98370.78;4953825;28;20094;-49
2022/06/25 06:59:08;;;;;;;6.78;1.00;;;;;;;33.23;29.40;98366.41;4953835;28;20375;-50
2022/06/25 07:01:34;;;;;;;3.90;1.02;;;;;;;33.98;28.33;98369.69;4953759;29;20454;-49
2022/06/25 07:04:00;;;;;;;3.85;0.80;;;;;;;34.45;27.98;98364.97;4953761;28;20039;-49
2022/06/25 07:06:26;;;;;;;7.50;1.23;;;;;;;34.78;27.56;98373.25;4952413;29;20031;-49
2022/06/25 07:08:51;;;;;;;3.97;1.00;;;;;;;35.37;26.76;98364.63;4953645;29;20114;-49
2022/06/25 07:11:29;;;;;;;3.15;0.75;;;;;;;35.31;26.52;98363.38;4952371;29;20027;-49
2022/06/25 07:14:00;;;;;;;3.15;0.75;;;;;;;34.74;27.30;98371.66;4952660;29;20043;-50
2022/06/25 07:16:27;;;;;;;3.40;0.70;;;;;;;34.09;27.50;98361.69;4953676;28;20023;-50
2022/06/25 07:18:56;;;;;;;3.05;1.25;;;;;;;33.77;28.58;98367.41;4952322;29;20216;-49
2022/06/25 07:21:23;;;;;;;4.55;1.00;;;;;;;33.91;28.30;98367.66;4953579;28;20074;-50
2022/06/25 07:23:48;;;;;;;5.30;1.30;;;;;;;33.70;28.29;98353.66;4952305;29;20038;-49
2022/06/25 07:26:14;;;;;;;9.90;1.50;;;;;;;33.75;28.73;98358.81;4953542;28;20027;-49
2022/06/25 07:28:40;;;;;;;5.28;1.17;;;;;;;34.00;28.40;98351.06;4951902;29;20078;-50
2022/06/25 07:31:06;;;;;;;5.15;1.02;;;;;;;34.48;27.96;98358.81;4936353;29;20031;-50
2022/06/25 07:33:31;;;;;;;3.55;0.90;;;;;;;34.70;27.64;98355.25;4953473;29;20551;-50
2022/06/25 07:35:58;;;;;;;6.47;1.13;;;;;;;34.91;27.66;98353.94;4953412;29;20030;-49
2022/06/25 07:38:24;;;;;;;21.25;2.97;;;;;;;35.11;27.25;98344.41;4953495;28;20098;-50
2022/06/25 07:40:50;;;;;;;12.13;1.65;;;;;;;35.64;26.88;98348.91;4952373;29;20059;-50
2022/06/25 07:43:16;;;;;;;7.88;1.42;;;;;;;36.42;26.31;98341.72;4953391;28;20031;-49
2022/06/25 07:45:42;;;;;;;5.78;1.73;;;;;;;36.32;25.37;98338.56;4952050;29;20031;-50
2022/06/25 07:48:08;;;;;;;2.80;0.80;;;;;;;36.16;25.82;98335.31;4953280;28;20110;-50
2022/06/25 07:53:18;;;;;;;4.30;0.93;;;;;;;36.83;25.06;98336.88;4953370;29;20476;-50
2022/06/25 07:55:44;;;;;;;6.03;1.10;;;;;;;37.48;24.41;98328.84;4955152;28;20027;-49
2022/06/25 07:58:10;;;;;;;8.00;1.40;;;;;;;37.51;24.19;98325.31;4955558;29;20406;-49
2022/06/25 08:00:35;;;;;;;4.32;0.88;;;;;;;38.10;22.60;98316.78;4956880;28;20553;-50
2022/06/25 08:03:01;;;;;;;3.13;0.93;;;;;;;38.56;21.89;98315.91;4956799;28;20028;-50
2022/06/25 08:05:28;;;;;;;4.55;0.80;;;;;;;38.80;21.79;98316.97;4956671;28;20541;-51
2022/06/25 08:07:54;;;;;;;4.15;0.90;;;;;;;38.58;21.81;98307.25;4956610;28;20031;-50
2022/06/25 08:10:21;;;;;;;6.53;1.25;;;;;;;38.07;24.92;98314.81;4956654;28;20061;-47
2022/06/25 08:12:48;;;;;;;5.18;1.10;;;;;;;37.32;25.16;98315.53;4955378;29;20453;-47
2022/06/25 08:15:14;;;;;;;5.35;0.93;;;;;;;37.31;24.25;98309.28;4956571;28;20098;-48
2022/06/25 08:17:40;;;;;;;1.75;1.00;;;;;;;37.39;24.10;98307.34;4955224;29;20047;-47
2022/06/25 08:20:06;;;;;;;14.85;1.30;;;;;;;37.59;23.50;98310.53;4956436;28;20039;-48
2022/06/25 08:22:32;;;;;;;3.60;0.65;;;;;;;38.09;22.69;98298.75;4955140;29;20034;-49
2022/06/25 08:24:58;;;;;;;7.28;1.33;;;;;;;38.44;22.21;98303.38;4956401;29;20027;-50
2022/06/25 08:27:24;;;;;;;4.72;1.10;;;;;;;39.11;21.20;98296.06;4955984;28;20498;-49
2022/06/25 08:29:50;;;;;;;5.75;0.73;;;;;;;39.42;20.99;98292.72;4955072;29;20115;-50
2022/06/25 08:32:16;;;;;;;5.15;0.88;;;;;;;39.41;20.57;98299.41;4954998;29;20114;-50
2022/06/25 08:34:42;;;;;;;10.43;1.73;;;;;;;39.97;20.43;98291.13;4956215;28;20024;-50
2022/06/25 08:37:08;;;;;;;17.20;3.83;;;;;;;40.35;20.57;98289.19;4956186;29;20058;-50
2022/06/25 08:39:33;;;;;;;3.67;0.90;;;;;;;40.64;19.83;98286.06;4956241;28;20064;-50
2022/06/25 08:42:03;;;;;;;4.20;1.05;;;;;;;40.49;20.20;98293.75;4956089;28;20030;-51
2022/06/25 08:44:30;;;;;;;8.98;2.10;;;;;;;40.93;19.68;98281.78;4954792;29;20031;-52
2022/06/25 08:46:58;;;;;;;8.20;0.90;;;;;;;41.57;19.14;98278.47;4955980;28;20046;-53
2022/06/25 08:49:25;;;;;;;5.38;0.95;;;;;;;41.43;19.16;98277.50;4955913;28;20047;-53
2022/06/25 08:51:57;;;;;;;4.97;1.20;;;;;;;40.96;19.14;98276.63;4954608;29;20038;-53
2022/06/25 08:54:25;;;;;;;5.32;1.00;;;;;;;40.09;20.11;98272.16;4955927;28;20393;-52
2022/06/25 08:56:53;;;;;;;7.43;1.40;;;;;;;40.29;20.43;98283.31;4955829;28;20039;-52
2022/06/25 08:59:19;;;;;;;6.35;1.60;;;;;;;40.18;20.46;98281.88;4955848;28;20045;-53
2022/06/25 09:01:45;;;;;;;14.48;2.70;;;;;;;40.46;20.24;98280.78;4955753;28;20561;-52
2022/06/25 09:04:11;;;;;;;15.38;2.00;;;;;;;40.85;20.13;98279.53;4955702;28;20019;-53
2022/06/25 09:06:37;;;;;;;10.93;1.90;;;;;;;41.35;19.85;98283.56;4953334;28;20490;-52
2022/06/25 09:09:15;;;;;;;2.30;0.90;;;;;;;40.86;21.93;98278.34;4955529;28;20110;-52
2022/06/25 09:11:55;;;;;;;21.25;3.25;;;;;;;39.69;23.91;98273.69;4955547;28;20023;-53
2022/06/25 09:14:29;;;;;;;10.70;1.60;;;;;;;39.51;22.54;98271.09;4955525;28;20027;-52
2022/06/25 09:17:04;;;;;;;9.77;1.67;;;;;;;39.05;23.39;98274.94;4955534;28;20042;-52
2022/06/25 09:19:36;;;;;;;5.03;1.00;;;;;;;37.92;23.11;98268.22;4955472;28;20134;-52
2022/06/25 09:22:10;;;;;;;4.03;0.90;;;;;;;37.03;24.05;98273.63;4954050;29;20031;-50
2022/06/25 09:24:46;;;;;;;20.73;2.63;;;;;;;37.52;24.07;98270.19;4954106;29;20027;-47
2022/06/25 09:27:13;;;;;;;10.20;1.30;;;;;;;38.81;22.54;98266.41;4953743;28;20385;-51
2022/06/25 09:29:44;;;;;;;2.25;1.05;;;;;;;39.79;21.28;98261.81;4954251;29;20071;-51
2022/06/25 09:32:11;;;;;;;19.05;2.83;;;;;;;40.88;20.94;98260.22;4969918;28;20090;-50
2022/06/25 09:34:38;;;;;;;2.85;1.00;;;;;;;40.90;20.06;98251.56;4955140;28;20023;-52
2022/06/25 09:37:21;;;;;;;3.40;0.88;;;;;;;40.07;20.88;98258.03;4955169;28;20023;-52
2022/06/25 09:39:48;;;;;;;5.15;1.23;;;;;;;39.26;21.25;98249.28;4955097;28;20033;-52
2022/06/25 09:42:30;;;;;;;4.13;1.27;;;;;;;38.58;21.76;98244.19;4955013;28;20503;-53
2022/06/25 09:45:12;;;;;;;4.05;1.00;;;;;;;38.19;21.13;98234.13;4953702;29;20039;-52
2022/06/25 09:47:46;;;;;;;1.67;0.52;;;;;;;37.57;21.10;98253.38;4954798;28;20059;-50
2022/06/25 09:50:15;;;;;;;2.97;0.50;;;;;;;37.09;22.12;98240.03;4954956;28;20094;-46
2022/06/25 09:53:01;;;;;;;1.33;0.60;;;;;;;37.25;21.40;98241.63;4953553;29;20070;-47
2022/06/25 09:55:30;;;;;;;2.75;0.50;;;;;;;36.93;21.49;98242.34;4953525;29;20114;-47
2022/06/25 09:57:59;;;;;;;2.88;0.70;;;;;;;36.54;21.63;98241.03;4954714;28;20031;-47
2022/06/25 10:00:25;;;;;;;2.92;0.52;;;;;;;36.90;22.05;98241.16;4954666;28;20068;-47
2022/06/25 10:02:52;;;;;;;6.13;0.70;;;;;;;37.90;21.07;98229.47;4954670;28;20402;-47
2022/06/25 10:05:21;;;;;;;4.35;0.88;;;;;;;38.90;19.66;98228.34;4953322;29;20019;-51
2022/06/25 10:08:00;;;;;;;4.03;0.90;;;;;;;38.72;19.37;98238.66;4954504;28;20027;-50
2022/06/25 10:10:53;;;;;;;4.60;0.80;;;;;;;38.15;19.73;98231.41;4954601;28;20050;-50
2022/06/25 10:13:21;;;;;;;1.13;0.63;;;;;;;37.60;20.53;98231.88;4951496;29;20481;-50
2022/06/25 10:15:47;;;;;;;3.45;0.63;;;;;;;37.68;20.52;98239.69;4954458;28;20082;-51
2022/06/25 10:18:13;;;;;;;0.75;0.65;;;;;;;38.01;20.69;98232.19;4954224;28;20489;-50
2022/06/25 10:20:40;;;;;;;6.65;1.20;;;;;;;38.08;19.84;98232.22;4953055;29;20137;-50
2022/06/25 10:23:09;;;;;;;5.35;0.85;;;;;;;37.68;20.51;98227.97;4954336;28;20102;-50
2022/06/25 10:25:35;;;;;;;1.95;0.63;;;;;;;37.54;20.42;98226.75;4952983;29;20030;-50
2022/06/25 10:28:04;;;;;;;0.77;0.57;;;;;;;37.48;20.77;98225.59;4954019;28;20097;-50
2022/06/25 10:30:46;;;;;;;2.42;0.70;;;;;;;37.21;21.53;98224.41;4954215;28;20035;-50
2022/06/25 10:33:14;;;;;;;3.80;0.77;;;;;;;37.72;21.29;98218.56;4952934;29;20118;-50
2022/06/25 10:35:41;;;;;;;11.85;1.75;;;;;;;38.42;21.22;98217.22;4952811;29;20093;-51
2022/06/25 10:38:09;;;;;;;5.55;0.93;;;;;;;39.27;20.40;98223.41;4954138;28;20419;-50
2022/06/25 10:43:53;;;;;;;4.28;0.70;;;;;;;38.87;19.36;98207.19;4954326;29;20111;-50
2022/06/25 10:46:36;;;;;;;2.47;0.60;;;;;;;38.21;20.60;98201.63;4953974;28;20027;-49
2022/06/25 10:49:31;;;;;;;1.27;0.50;;;;;;;38.85;19.33;98206.81;4953908;28;20027;-50
2022/06/25 10:51:57;;;;;;;1.65;0.50;;;;;;;38.68;18.25;98210.47;4941235;28;20038;-50
2022/06/25 10:54:22;;;;;;;2.33;0.50;;;;;;;37.85;19.10;98204.44;4952615;29;20405;-50
2022/06/25 10:56:51;;;;;;;5.05;0.90;;;;;;;37.68;19.09;98175.94;4953795;28;20038;-50
2022/06/25 10:59:34;;;;;;;0.80;0.40;;;;;;;36.68;19.42;98201.25;4952554;29;20069;-50
2022/06/25 11:02:05;;;;;;;2.63;0.60;;;;;;;36.37;20.35;98198.00;4953813;28;20020;-47
2022/06/25 11:04:32;;;;;;;3.58;0.60;;;;;;;36.70;20.31;98190.72;4953841;28;20054;-47
2022/06/25 11:07:11;;;;;;;3.00;0.50;;;;;;;36.96;20.17;98197.78;4952440;29;20027;-48
2022/06/25 11:09:38;;;;;;;1.70;0.52;;;;;;;36.62;20.73;98189.09;4953689;28;20031;-47
2022/06/25 11:12:06;;;;;;;9.55;1.40;;;;;;;36.14;20.64;98198.25;4952366;29;20107;-47
2022/06/25 11:14:32;;;;;;;1.38;0.38;;;;;;;36.08;20.78;98194.34;4953677;28;20525;-47
2022/06/25 11:17:06;;;;;;;2.17;0.40;;;;;;;36.37;20.89;98201.53;4953638;28;20102;-47
2022/06/25 11:19:32;;;;;;;1.25;0.40;;;;;;;36.25;20.90;98187.44;4952353;29;20130;-48
2022/06/25 11:22:01;;;;;;;2.53;0.50;;;;;;;35.84;21.72;98196.56;4952317;29;20170;-47
2022/06/25 11:24:29;;;;;;;2.63;0.50;;;;;;;36.02;21.27;98202.13;4953571;28;20114;-47
2022/06/25 11:29:47;;;;;;;6.15;0.93;;;;;;;35.95;21.22;98170.09;4952965;28;20062;-47
2022/06/25 11:32:25;;;;;;;3.25;0.40;;;;;;;35.87;20.13;98171.22;4957386;28;20089;-47
2022/06/25 11:34:53;;;;;;;1.77;0.40;;;;;;;36.21;20.21;98189.38;4956164;29;20035;-47
2022/06/25 11:37:19;;;;;;;5.18;0.90;;;;;;;36.09;20.27;98185.75;4956036;29;20110;-48
2022/06/25 11:39:47;;;;;;;1.25;0.43;;;;;;;35.59;20.46;98185.44;4955987;29;20456;-47
2022/06/25 11:42:13;;;;;;;2.47;0.55;;;;;;;35.48;21.08;98179.94;4957137;28;20026;-47
2022/06/25 11:44:45;;;;;;;7.53;1.10;;;;;;;35.59;21.11;98158.94;4957138;28;20031;-48
2022/06/25 11:47:29;;;;;;;1.13;0.43;;;;;;;35.74;21.02;98161.81;4957348;28;20098;-48